sensor_id;sensor_type;location;lat;lon;timestamp;P1;durP1;ratioP1;P2;durP2;ratioP2
23123;SDS011;11731;48.592;8.858;2023-08-21T00:01:00;7.20;;;5.83;;
23123;SDS011;11731;48.592;8.858;2023-08-21T00:03:28;7.60;;;5.17;;
23123;SDS011;11731;48.592;8.858;2023-08-21T00:05:55;8.67;;;6.47;;
23123;SDS011;11731;48.592;8.858;2023-08-21T00:08:23;8.03;;;5.63;;
23123;SDS011;11731;48.592;8.858;2023-08-21T00:10:50;6.73;;;5.60;;
23123;SDS011;11731;48.592;8.858;2023-08-21T00:13:17;7.57;;;5.43;;
23123;SDS011;11731;48.592;8.858;2023-08-21T00:15:45;8.23;;;5.10;;
23123;SDS011;11731;48.592;8.858;2023-08-21T00:18:11;9.53;;;5.73;;
23123;SDS011;11731;48.592;8.858;2023-08-21T00:20:39;7.47;;;5.63;;
23123;SDS011;11731;48.592;8.858;2023-08-21T00:23:08;7.23;;;5.53;;
23123;SDS011;11731;48.592;8.858;2023-08-21T00:25:36;10.23;;;5.90;;
23123;SDS011;11731;48.592;8.858;2023-08-21T00:28:03;6.40;;;5.73;;
23123;SDS011;11731;48.592;8.858;2023-08-21T00:30:30;6.63;;;5.60;;
23123;SDS011;11731;48.592;8.858;2023-08-21T00:32:57;10.40;;;6.17;;
23123;SDS011;11731;48.592;8.858;2023-08-21T00:35:25;6.30;;;5.57;;
23123;SDS011;11731;48.592;8.858;2023-08-21T00:37:57;7.07;;;5.67;;
23123;SDS011;11731;48.592;8.858;2023-08-21T00:40:23;8.13;;;6.40;;
23123;SDS011;11731;48.592;8.858;2023-08-21T00:42:52;7.27;;;6.20;;
23123;SDS011;11731;48.592;8.858;2023-08-21T00:45:20;7.37;;;5.67;;
23123;SDS011;11731;48.592;8.858;2023-08-21T00:47:48;7.23;;;5.73;;
23123;SDS011;11731;48.592;8.858;2023-08-21T00:50:15;8.70;;;5.83;;
23123;SDS011;11731;48.592;8.858;2023-08-21T00:52:42;7.10;;;6.07;;
23123;SDS011;11731;48.592;8.858;2023-08-21T00:55:11;9.33;;;6.10;;
23123;SDS011;11731;48.592;8.858;2023-08-21T00:57:39;7.70;;;5.50;;
23123;SDS011;11731;48.592;8.858;2023-08-21T01:00:08;8.57;;;5.97;;
23123;SDS011;11731;48.592;8.858;2023-08-21T01:02:36;8.40;;;5.87;;
23123;SDS011;11731;48.592;8.858;2023-08-21T01:05:03;7.40;;;6.70;;
23123;SDS011;11731;48.592;8.858;2023-08-21T01:07:30;7.87;;;5.50;;
23123;SDS011;11731;48.592;8.858;2023-08-21T01:10:03;9.20;;;5.70;;
23123;SDS011;11731;48.592;8.858;2023-08-21T01:12:37;6.87;;;6.07;;
23123;SDS011;11731;48.592;8.858;2023-08-21T01:15:16;8.47;;;6.03;;
23123;SDS011;11731;48.592;8.858;2023-08-21T01:17:43;7.27;;;6.30;;
23123;SDS011;11731;48.592;8.858;2023-08-21T01:20:12;6.43;;;5.83;;
23123;SDS011;11731;48.592;8.858;2023-08-21T01:22:40;9.83;;;6.17;;
23123;SDS011;11731;48.592;8.858;2023-08-21T01:25:12;6.27;;;5.67;;
23123;SDS011;11731;48.592;8.858;2023-08-21T01:27:42;6.93;;;5.57;;
23123;SDS011;11731;48.592;8.858;2023-08-21T01:30:10;11.60;;;6.60;;
23123;SDS011;11731;48.592;8.858;2023-08-21T01:32:37;8.70;;;6.07;;
23123;SDS011;11731;48.592;8.858;2023-08-21T01:35:08;6.70;;;5.73;;
23123;SDS011;11731;48.592;8.858;2023-08-21T01:37:37;6.50;;;5.80;;
23123;SDS011;11731;48.592;8.858;2023-08-21T01:40:04;7.47;;;6.13;;
23123;SDS011;11731;48.592;8.858;2023-08-21T01:42:33;7.97;;;5.83;;
23123;SDS011;11731;48.592;8.858;2023-08-21T01:45:00;7.90;;;5.67;;
23123;SDS011;11731;48.592;8.858;2023-08-21T01:47:27;7.00;;;6.30;;
23123;SDS011;11731;48.592;8.858;2023-08-21T01:49:54;7.53;;;6.40;;
23123;SDS011;11731;48.592;8.858;2023-08-21T01:52:21;7.83;;;5.90;;
23123;SDS011;11731;48.592;8.858;2023-08-21T01:54:49;8.07;;;7.20;;
23123;SDS011;11731;48.592;8.858;2023-08-21T01:57:16;6.43;;;5.83;;
23123;SDS011;11731;48.592;8.858;2023-08-21T01:59:44;8.47;;;5.80;;
23123;SDS011;11731;48.592;8.858;2023-08-21T02:02:11;8.47;;;6.47;;
23123;SDS011;11731;48.592;8.858;2023-08-21T02:04:38;8.17;;;7.10;;
23123;SDS011;11731;48.592;8.858;2023-08-21T02:07:05;9.93;;;6.43;;
23123;SDS011;11731;48.592;8.858;2023-08-21T02:09:32;8.67;;;6.63;;
23123;SDS011;11731;48.592;8.858;2023-08-21T02:11:59;10.17;;;6.30;;
23123;SDS011;11731;48.592;8.858;2023-08-21T02:14:26;10.73;;;6.43;;
23123;SDS011;11731;48.592;8.858;2023-08-21T02:16:54;10.57;;;7.10;;
23123;SDS011;11731;48.592;8.858;2023-08-21T02:19:21;6.97;;;6.27;;
23123;SDS011;11731;48.592;8.858;2023-08-21T02:21:47;6.83;;;6.17;;
23123;SDS011;11731;48.592;8.858;2023-08-21T02:24:14;7.00;;;6.30;;
23123;SDS011;11731;48.592;8.858;2023-08-21T02:26:42;7.83;;;6.57;;
23123;SDS011;11731;48.592;8.858;2023-08-21T02:29:10;8.30;;;6.40;;
23123;SDS011;11731;48.592;8.858;2023-08-21T02:31:37;8.83;;;6.60;;
23123;SDS011;11731;48.592;8.858;2023-08-21T02:34:06;9.10;;;6.83;;
23123;SDS011;11731;48.592;8.858;2023-08-21T02:36:32;10.50;;;7.17;;
23123;SDS011;11731;48.592;8.858;2023-08-21T02:38:59;7.63;;;6.53;;
23123;SDS011;11731;48.592;8.858;2023-08-21T02:41:28;11.87;;;7.40;;
23123;SDS011;11731;48.592;8.858;2023-08-21T02:44:01;8.20;;;7.20;;
23123;SDS011;11731;48.592;8.858;2023-08-21T02:46:29;9.27;;;8.27;;
23123;SDS011;11731;48.592;8.858;2023-08-21T02:48:58;9.40;;;7.20;;
23123;SDS011;11731;48.592;8.858;2023-08-21T02:51:26;8.03;;;7.00;;
23123;SDS011;11731;48.592;8.858;2023-08-21T02:53:53;7.40;;;6.63;;
23123;SDS011;11731;48.592;8.858;2023-08-21T02:56:20;10.73;;;7.10;;
23123;SDS011;11731;48.592;8.858;2023-08-21T02:58:47;8.67;;;7.67;;
23123;SDS011;11731;48.592;8.858;2023-08-21T03:01:13;8.70;;;7.37;;
23123;SDS011;11731;48.592;8.858;2023-08-21T03:03:40;7.83;;;7.03;;
23123;SDS011;11731;48.592;8.858;2023-08-21T03:06:07;9.13;;;7.60;;
23123;SDS011;11731;48.592;8.858;2023-08-21T03:08:35;9.60;;;7.03;;
23123;SDS011;11731;48.592;8.858;2023-08-21T03:11:02;12.53;;;7.93;;
23123;SDS011;11731;48.592;8.858;2023-08-21T03:13:29;11.57;;;8.00;;
23123;SDS011;11731;48.592;8.858;2023-08-21T03:15:56;9.87;;;7.40;;
23123;SDS011;11731;48.592;8.858;2023-08-21T03:18:23;10.80;;;7.67;;
23123;SDS011;11731;48.592;8.858;2023-08-21T03:20:51;11.00;;;7.87;;
23123;SDS011;11731;48.592;8.858;2023-08-21T03:23:17;10.87;;;7.67;;
23123;SDS011;11731;48.592;8.858;2023-08-21T03:25:46;8.90;;;7.57;;
23123;SDS011;11731;48.592;8.858;2023-08-21T03:28:13;8.57;;;7.67;;
23123;SDS011;11731;48.592;8.858;2023-08-21T03:30:44;12.23;;;8.73;;
23123;SDS011;11731;48.592;8.858;2023-08-21T03:33:11;8.60;;;7.80;;
23123;SDS011;11731;48.592;8.858;2023-08-21T03:35:38;11.03;;;8.33;;
23123;SDS011;11731;48.592;8.858;2023-08-21T03:38:05;8.63;;;7.73;;
23123;SDS011;11731;48.592;8.858;2023-08-21T03:40:31;8.33;;;7.50;;
23123;SDS011;11731;48.592;8.858;2023-08-21T03:42:59;8.40;;;7.33;;
23123;SDS011;11731;48.592;8.858;2023-08-21T03:45:26;13.37;;;7.67;;
23123;SDS011;11731;48.592;8.858;2023-08-21T03:47:53;9.30;;;7.03;;
23123;SDS011;11731;48.592;8.858;2023-08-21T03:50:20;9.97;;;7.23;;
23123;SDS011;11731;48.592;8.858;2023-08-21T03:52:47;10.70;;;7.57;;
23123;SDS011;11731;48.592;8.858;2023-08-21T03:55:14;10.50;;;7.90;;
23123;SDS011;11731;48.592;8.858;2023-08-21T03:57:41;7.87;;;7.17;;
23123;SDS011;11731;48.592;8.858;2023-08-21T04:00:09;8.23;;;7.40;;
23123;SDS011;11731;48.592;8.858;2023-08-21T04:02:37;9.57;;;7.93;;
23123;SDS011;11731;48.592;8.858;2023-08-21T04:05:04;7.50;;;6.73;;
23123;SDS011;11731;48.592;8.858;2023-08-21T04:07:31;9.40;;;7.00;;
23123;SDS011;11731;48.592;8.858;2023-08-21T04:09:57;9.93;;;7.73;;
23123;SDS011;11731;48.592;8.858;2023-08-21T04:12:24;10.03;;;7.33;;
23123;SDS011;11731;48.592;8.858;2023-08-21T04:14:51;10.33;;;8.20;;
23123;SDS011;11731;48.592;8.858;2023-08-21T04:17:21;9.67;;;7.47;;
23123;SDS011;11731;48.592;8.858;2023-08-21T04:19:48;10.60;;;8.17;;
23123;SDS011;11731;48.592;8.858;2023-08-21T04:22:15;8.90;;;7.57;;
23123;SDS011;11731;48.592;8.858;2023-08-21T04:24:42;8.57;;;7.63;;
23123;SDS011;11731;48.592;8.858;2023-08-21T04:27:09;11.27;;;8.10;;
23123;SDS011;11731;48.592;8.858;2023-08-21T04:29:36;9.63;;;7.73;;
23123;SDS011;11731;48.592;8.858;2023-08-21T04:32:05;10.63;;;7.57;;
23123;SDS011;11731;48.592;8.858;2023-08-21T04:34:33;9.13;;;7.57;;
23123;SDS011;11731;48.592;8.858;2023-08-21T04:37:00;7.63;;;6.83;;
23123;SDS011;11731;48.592;8.858;2023-08-21T04:39:27;9.70;;;7.30;;
23123;SDS011;11731;48.592;8.858;2023-08-21T04:41:54;10.00;;;7.43;;
23123;SDS011;11731;48.592;8.858;2023-08-21T04:44:21;8.23;;;7.40;;
23123;SDS011;11731;48.592;8.858;2023-08-21T04:46:48;8.60;;;7.50;;
23123;SDS011;11731;48.592;8.858;2023-08-21T04:49:16;9.17;;;7.13;;
23123;SDS011;11731;48.592;8.858;2023-08-21T04:51:44;10.30;;;7.57;;
23123;SDS011;11731;48.592;8.858;2023-08-21T04:54:10;7.90;;;7.00;;
23123;SDS011;11731;48.592;8.858;2023-08-21T04:56:37;12.43;;;7.73;;
23123;SDS011;11731;48.592;8.858;2023-08-21T04:59:04;10.33;;;7.40;;
23123;SDS011;11731;48.592;8.858;2023-08-21T05:01:31;12.37;;;7.43;;
23123;SDS011;11731;48.592;8.858;2023-08-21T05:03:58;7.97;;;7.17;;
23123;SDS011;11731;48.592;8.858;2023-08-21T05:06:25;9.23;;;8.00;;
23123;SDS011;11731;48.592;8.858;2023-08-21T05:08:53;9.57;;;7.77;;
23123;SDS011;11731;48.592;8.858;2023-08-21T05:11:20;10.13;;;6.77;;
23123;SDS011;11731;48.592;8.858;2023-08-21T05:13:46;10.97;;;7.20;;
23123;SDS011;11731;48.592;8.858;2023-08-21T05:16:13;10.90;;;7.03;;
23123;SDS011;11731;48.592;8.858;2023-08-21T05:18:40;8.33;;;7.53;;
23123;SDS011;11731;48.592;8.858;2023-08-21T05:21:07;8.67;;;7.10;;
23123;SDS011;11731;48.592;8.858;2023-08-21T05:23:34;9.03;;;7.40;;
23123;SDS011;11731;48.592;8.858;2023-08-21T05:26:02;9.10;;;7.43;;
23123;SDS011;11731;48.592;8.858;2023-08-21T05:28:29;8.83;;;6.80;;
23123;SDS011;11731;48.592;8.858;2023-08-21T05:30:56;10.03;;;6.87;;
23123;SDS011;11731;48.592;8.858;2023-08-21T05:33:23;8.20;;;7.40;;
23123;SDS011;11731;48.592;8.858;2023-08-21T05:35:50;8.63;;;7.83;;
23123;SDS011;11731;48.592;8.858;2023-08-21T05:38:18;10.60;;;7.43;;
23123;SDS011;11731;48.592;8.858;2023-08-21T05:40:45;11.30;;;8.07;;
23123;SDS011;11731;48.592;8.858;2023-08-21T05:43:13;15.30;;;9.60;;
23123;SDS011;11731;48.592;8.858;2023-08-21T05:45:40;13.43;;;10.80;;
23123;SDS011;11731;48.592;8.858;2023-08-21T05:48:07;13.30;;;9.37;;
23123;SDS011;11731;48.592;8.858;2023-08-21T05:50:34;13.77;;;8.83;;
23123;SDS011;11731;48.592;8.858;2023-08-21T05:53:02;9.20;;;7.80;;
23123;SDS011;11731;48.592;8.858;2023-08-21T05:55:29;11.37;;;8.13;;
23123;SDS011;11731;48.592;8.858;2023-08-21T05:57:56;9.30;;;8.30;;
23123;SDS011;11731;48.592;8.858;2023-08-21T06:00:24;11.73;;;8.60;;
23123;SDS011;11731;48.592;8.858;2023-08-21T06:02:51;10.27;;;8.67;;
23123;SDS011;11731;48.592;8.858;2023-08-21T06:05:32;10.03;;;8.43;;
23123;SDS011;11731;48.592;8.858;2023-08-21T06:07:59;12.40;;;9.03;;
23123;SDS011;11731;48.592;8.858;2023-08-21T06:10:26;10.30;;;8.33;;
23123;SDS011;11731;48.592;8.858;2023-08-21T06:12:52;11.67;;;9.30;;
23123;SDS011;11731;48.592;8.858;2023-08-21T06:15:20;11.70;;;9.60;;
23123;SDS011;11731;48.592;8.858;2023-08-21T06:17:48;13.93;;;9.53;;
23123;SDS011;11731;48.592;8.858;2023-08-21T06:20:15;13.83;;;9.53;;
23123;SDS011;11731;48.592;8.858;2023-08-21T06:22:43;13.00;;;8.77;;
23123;SDS011;11731;48.592;8.858;2023-08-21T06:25:10;9.27;;;8.33;;
23123;SDS011;11731;48.592;8.858;2023-08-21T06:27:37;11.73;;;8.57;;
23123;SDS011;11731;48.592;8.858;2023-08-21T06:30:05;12.20;;;9.17;;
23123;SDS011;11731;48.592;8.858;2023-08-21T06:32:32;9.70;;;8.67;;
23123;SDS011;11731;48.592;8.858;2023-08-21T06:35:01;10.87;;;8.53;;
23123;SDS011;11731;48.592;8.858;2023-08-21T06:37:27;11.43;;;8.70;;
23123;SDS011;11731;48.592;8.858;2023-08-21T06:39:54;9.93;;;8.83;;
23123;SDS011;11731;48.592;8.858;2023-08-21T06:42:21;10.03;;;9.00;;
23123;SDS011;11731;48.592;8.858;2023-08-21T06:44:48;9.27;;;8.37;;
23123;SDS011;11731;48.592;8.858;2023-08-21T06:47:15;9.60;;;8.60;;
23123;SDS011;11731;48.592;8.858;2023-08-21T06:49:42;14.60;;;7.73;;
23123;SDS011;11731;48.592;8.858;2023-08-21T06:52:10;10.00;;;7.47;;
23123;SDS011;11731;48.592;8.858;2023-08-21T06:54:37;9.63;;;7.83;;
23123;SDS011;11731;48.592;8.858;2023-08-21T06:57:04;11.60;;;7.40;;
23123;SDS011;11731;48.592;8.858;2023-08-21T06:59:31;9.83;;;7.50;;
23123;SDS011;11731;48.592;8.858;2023-08-21T07:02:00;10.90;;;7.50;;
23123;SDS011;11731;48.592;8.858;2023-08-21T07:04:27;9.33;;;7.93;;
23123;SDS011;11731;48.592;8.858;2023-08-21T07:06:54;8.83;;;7.87;;
23123;SDS011;11731;48.592;8.858;2023-08-21T07:09:23;11.33;;;7.73;;
23123;SDS011;11731;48.592;8.858;2023-08-21T07:11:49;9.30;;;7.40;;
23123;SDS011;11731;48.592;8.858;2023-08-21T07:14:16;9.03;;;8.00;;
23123;SDS011;11731;48.592;8.858;2023-08-21T07:16:43;9.80;;;7.67;;
23123;SDS011;11731;48.592;8.858;2023-08-21T07:19:10;11.67;;;9.17;;
23123;SDS011;11731;48.592;8.858;2023-08-21T07:21:37;11.63;;;8.93;;
23123;SDS011;11731;48.592;8.858;2023-08-21T07:24:04;10.27;;;8.47;;
23123;SDS011;11731;48.592;8.858;2023-08-21T07:26:32;11.90;;;9.20;;
23123;SDS011;11731;48.592;8.858;2023-08-21T07:28:59;13.10;;;8.50;;
23123;SDS011;11731;48.592;8.858;2023-08-21T07:31:26;8.83;;;8.03;;
23123;SDS011;11731;48.592;8.858;2023-08-21T07:33:53;10.50;;;7.53;;
23123;SDS011;11731;48.592;8.858;2023-08-21T07:36:20;9.73;;;7.30;;
23123;SDS011;11731;48.592;8.858;2023-08-21T07:38:47;9.73;;;8.67;;
23123;SDS011;11731;48.592;8.858;2023-08-21T07:41:14;9.67;;;8.23;;
23123;SDS011;11731;48.592;8.858;2023-08-21T07:43:42;9.80;;;7.60;;
23123;SDS011;11731;48.592;8.858;2023-08-21T07:46:10;10.00;;;7.70;;
23123;SDS011;11731;48.592;8.858;2023-08-21T07:48:42;9.90;;;7.37;;
23123;SDS011;11731;48.592;8.858;2023-08-21T07:51:59;12.30;;;8.07;;
23123;SDS011;11731;48.592;8.858;2023-08-21T07:54:26;13.70;;;7.73;;
23123;SDS011;11731;48.592;8.858;2023-08-21T07:56:53;8.17;;;7.37;;
23123;SDS011;11731;48.592;8.858;2023-08-21T07:59:21;9.10;;;7.00;;
23123;SDS011;11731;48.592;8.858;2023-08-21T08:01:48;8.27;;;6.77;;
23123;SDS011;11731;48.592;8.858;2023-08-21T08:04:15;10.23;;;7.33;;
23123;SDS011;11731;48.592;8.858;2023-08-21T08:06:41;15.07;;;7.80;;
23123;SDS011;11731;48.592;8.858;2023-08-21T08:09:25;11.47;;;7.37;;
23123;SDS011;11731;48.592;8.858;2023-08-21T08:12:08;8.70;;;7.23;;
23123;SDS011;11731;48.592;8.858;2023-08-21T08:14:36;8.47;;;6.83;;
23123;SDS011;11731;48.592;8.858;2023-08-21T08:17:03;14.10;;;7.00;;
23123;SDS011;11731;48.592;8.858;2023-08-21T08:19:30;10.90;;;6.60;;
23123;SDS011;11731;48.592;8.858;2023-08-21T08:21:57;7.37;;;6.47;;
23123;SDS011;11731;48.592;8.858;2023-08-21T08:24:24;10.40;;;6.20;;
23123;SDS011;11731;48.592;8.858;2023-08-21T08:26:51;7.97;;;6.43;;
23123;SDS011;11731;48.592;8.858;2023-08-21T08:29:18;8.63;;;7.10;;
23123;SDS011;11731;48.592;8.858;2023-08-21T08:31:47;11.20;;;6.83;;
23123;SDS011;11731;48.592;8.858;2023-08-21T08:34:13;9.07;;;6.30;;
23123;SDS011;11731;48.592;8.858;2023-08-21T08:36:43;9.27;;;6.37;;
23123;SDS011;11731;48.592;8.858;2023-08-21T08:39:09;9.23;;;6.60;;
23123;SDS011;11731;48.592;8.858;2023-08-21T08:41:37;10.40;;;6.37;;
23123;SDS011;11731;48.592;8.858;2023-08-21T08:44:10;11.70;;;6.40;;
23123;SDS011;11731;48.592;8.858;2023-08-21T08:46:41;7.50;;;6.53;;
23123;SDS011;11731;48.592;8.858;2023-08-21T08:49:11;9.10;;;6.43;;
23123;SDS011;11731;48.592;8.858;2023-08-21T08:51:38;7.93;;;6.00;;
23123;SDS011;11731;48.592;8.858;2023-08-21T08:54:07;8.73;;;6.33;;
23123;SDS011;11731;48.592;8.858;2023-08-21T08:56:35;7.37;;;6.23;;
23123;SDS011;11731;48.592;8.858;2023-08-21T08:59:02;7.97;;;6.27;;
23123;SDS011;11731;48.592;8.858;2023-08-21T09:01:29;7.47;;;6.27;;
23123;SDS011;11731;48.592;8.858;2023-08-21T09:03:56;9.33;;;6.50;;
23123;SDS011;11731;48.592;8.858;2023-08-21T09:06:24;10.37;;;7.10;;
23123;SDS011;11731;48.592;8.858;2023-08-21T09:08:53;8.87;;;5.83;;
23123;SDS011;11731;48.592;8.858;2023-08-21T09:11:20;15.20;;;6.70;;
23123;SDS011;11731;48.592;8.858;2023-08-21T09:13:48;7.23;;;6.17;;
23123;SDS011;11731;48.592;8.858;2023-08-21T09:16:16;7.90;;;6.00;;
23123;SDS011;11731;48.592;8.858;2023-08-21T09:18:46;6.77;;;5.87;;
23123;SDS011;11731;48.592;8.858;2023-08-21T09:21:15;7.87;;;6.60;;
23123;SDS011;11731;48.592;8.858;2023-08-21T09:23:44;8.30;;;5.40;;
23123;SDS011;11731;48.592;8.858;2023-08-21T09:26:11;7.40;;;6.27;;
23123;SDS011;11731;48.592;8.858;2023-08-21T09:28:44;7.30;;;5.40;;
23123;SDS011;11731;48.592;8.858;2023-08-21T09:31:11;6.27;;;5.00;;
23123;SDS011;11731;48.592;8.858;2023-08-21T09:33:38;9.77;;;5.30;;
23123;SDS011;11731;48.592;8.858;2023-08-21T09:36:04;7.00;;;5.03;;
23123;SDS011;11731;48.592;8.858;2023-08-21T09:38:32;8.57;;;5.17;;
23123;SDS011;11731;48.592;8.858;2023-08-21T09:41:01;8.67;;;5.43;;
23123;SDS011;11731;48.592;8.858;2023-08-21T09:43:28;8.33;;;5.47;;
23123;SDS011;11731;48.592;8.858;2023-08-21T09:45:55;8.20;;;5.47;;
23123;SDS011;11731;48.592;8.858;2023-08-21T09:48:22;7.07;;;5.57;;
23123;SDS011;11731;48.592;8.858;2023-08-21T09:50:51;6.60;;;5.57;;
23123;SDS011;11731;48.592;8.858;2023-08-21T09:53:19;8.90;;;5.57;;
23123;SDS011;11731;48.592;8.858;2023-08-21T09:55:47;6.63;;;5.50;;
23123;SDS011;11731;48.592;8.858;2023-08-21T09:58:16;7.60;;;5.20;;
23123;SDS011;11731;48.592;8.858;2023-08-21T10:00:45;6.57;;;5.50;;
23123;SDS011;11731;48.592;8.858;2023-08-21T10:03:13;6.57;;;5.87;;
23123;SDS011;11731;48.592;8.858;2023-08-21T10:05:47;6.20;;;5.53;;
23123;SDS011;11731;48.592;8.858;2023-08-21T10:08:15;7.60;;;5.43;;
23123;SDS011;11731;48.592;8.858;2023-08-21T10:10:44;7.63;;;6.00;;
23123;SDS011;11731;48.592;8.858;2023-08-21T10:13:11;8.90;;;5.93;;
23123;SDS011;11731;48.592;8.858;2023-08-21T10:15:39;10.43;;;6.00;;
23123;SDS011;11731;48.592;8.858;2023-08-21T10:18:19;9.07;;;5.43;;
23123;SDS011;11731;48.592;8.858;2023-08-21T10:20:48;7.57;;;5.60;;
23123;SDS011;11731;48.592;8.858;2023-08-21T10:23:25;7.63;;;5.60;;
23123;SDS011;11731;48.592;8.858;2023-08-21T10:25:57;9.27;;;6.10;;
23123;SDS011;11731;48.592;8.858;2023-08-21T10:28:24;8.33;;;5.67;;
23123;SDS011;11731;48.592;8.858;2023-08-21T10:30:52;7.97;;;5.70;;
23123;SDS011;11731;48.592;8.858;2023-08-21T10:33:33;8.73;;;6.20;;
23123;SDS011;11731;48.592;8.858;2023-08-21T10:36:11;8.53;;;6.20;;
23123;SDS011;11731;48.592;8.858;2023-08-21T10:41:26;7.95;;;5.65;;
23123;SDS011;11731;48.592;8.858;2023-08-21T10:43:53;9.02;;;5.68;;
23123;SDS011;11731;48.592;8.858;2023-08-21T10:46:21;10.30;;;5.82;;
23123;SDS011;11731;48.592;8.858;2023-08-21T10:48:48;8.23;;;5.90;;
23123;SDS011;11731;48.592;8.858;2023-08-21T10:51:15;8.43;;;5.40;;
23123;SDS011;11731;48.592;8.858;2023-08-21T10:53:43;8.85;;;6.75;;
23123;SDS011;11731;48.592;8.858;2023-08-21T10:56:10;8.35;;;6.30;;
23123;SDS011;11731;48.592;8.858;2023-08-21T10:58:37;9.82;;;6.00;;
23123;SDS011;11731;48.592;8.858;2023-08-21T11:01:05;9.93;;;6.18;;
23123;SDS011;11731;48.592;8.858;2023-08-21T11:03:33;6.70;;;6.10;;
23123;SDS011;11731;48.592;8.858;2023-08-21T11:06:01;11.00;;;5.80;;
23123;SDS011;11731;48.592;8.858;2023-08-21T11:08:29;9.38;;;5.90;;
23123;SDS011;11731;48.592;8.858;2023-08-21T11:10:57;8.15;;;6.38;;
23123;SDS011;11731;48.592;8.858;2023-08-21T11:13:24;8.57;;;6.15;;
23123;SDS011;11731;48.592;8.858;2023-08-21T11:15:57;7.03;;;6.32;;
23123;SDS011;11731;48.592;8.858;2023-08-21T11:18:29;8.75;;;6.22;;
23123;SDS011;11731;48.592;8.858;2023-08-21T11:21:04;8.05;;;5.97;;
23123;SDS011;11731;48.592;8.858;2023-08-21T11:23:32;10.73;;;6.60;;
23123;SDS011;11731;48.592;8.858;2023-08-21T11:26:00;7.75;;;5.97;;
23123;SDS011;11731;48.592;8.858;2023-08-21T11:28:28;5.70;;;5.18;;
23123;SDS011;11731;48.592;8.858;2023-08-21T11:30:55;8.73;;;6.30;;
23123;SDS011;11731;48.592;8.858;2023-08-21T11:33:22;6.88;;;6.13;;
23123;SDS011;11731;48.592;8.858;2023-08-21T11:35:49;7.03;;;6.25;;
23123;SDS011;11731;48.592;8.858;2023-08-21T11:38:19;6.80;;;5.82;;
23123;SDS011;11731;48.592;8.858;2023-08-21T11:40:51;6.70;;;6.00;;
23123;SDS011;11731;48.592;8.858;2023-08-21T11:43:18;6.72;;;5.90;;
23123;SDS011;11731;48.592;8.858;2023-08-21T11:45:45;8.95;;;5.85;;
23123;SDS011;11731;48.592;8.858;2023-08-21T11:48:12;6.85;;;5.97;;
23123;SDS011;11731;48.592;8.858;2023-08-21T11:50:39;6.28;;;5.65;;
23123;SDS011;11731;48.592;8.858;2023-08-21T11:53:06;7.53;;;6.38;;
23123;SDS011;11731;48.592;8.858;2023-08-21T11:55:35;8.70;;;6.07;;
23123;SDS011;11731;48.592;8.858;2023-08-21T11:58:03;9.00;;;6.30;;
23123;SDS011;11731;48.592;8.858;2023-08-21T12:00:30;6.53;;;5.68;;
23123;SDS011;11731;48.592;8.858;2023-08-21T12:02:57;14.50;;;7.32;;
23123;SDS011;11731;48.592;8.858;2023-08-21T12:05:25;9.88;;;6.65;;
23123;SDS011;11731;48.592;8.858;2023-08-21T12:07:53;9.75;;;6.20;;
23123;SDS011;11731;48.592;8.858;2023-08-21T12:10:23;8.27;;;6.30;;
23123;SDS011;11731;48.592;8.858;2023-08-21T12:12:52;8.43;;;6.07;;
23123;SDS011;11731;48.592;8.858;2023-08-21T12:15:19;6.80;;;6.05;;
23123;SDS011;11731;48.592;8.858;2023-08-21T12:17:48;7.00;;;6.32;;
23123;SDS011;11731;48.592;8.858;2023-08-21T12:20:15;8.05;;;6.38;;
23123;SDS011;11731;48.592;8.858;2023-08-21T12:22:42;6.45;;;5.85;;
23123;SDS011;11731;48.592;8.858;2023-08-21T12:25:09;17.08;;;6.15;;
23123;SDS011;11731;48.592;8.858;2023-08-21T12:27:36;9.23;;;6.35;;
23123;SDS011;11731;48.592;8.858;2023-08-21T12:30:05;7.18;;;6.57;;
23123;SDS011;11731;48.592;8.858;2023-08-21T12:32:33;7.65;;;5.97;;
23123;SDS011;11731;48.592;8.858;2023-08-21T12:35:00;6.10;;;5.50;;
23123;SDS011;11731;48.592;8.858;2023-08-21T12:37:29;6.47;;;5.82;;
23123;SDS011;11731;48.592;8.858;2023-08-21T12:39:56;6.38;;;5.78;;
23123;SDS011;11731;48.592;8.858;2023-08-21T12:42:22;5.95;;;5.35;;
23123;SDS011;11731;48.592;8.858;2023-08-21T12:44:49;5.80;;;5.20;;
23123;SDS011;11731;48.592;8.858;2023-08-21T12:47:17;7.47;;;6.05;;
23123;SDS011;11731;48.592;8.858;2023-08-21T12:49:44;6.82;;;5.10;;
23123;SDS011;11731;48.592;8.858;2023-08-21T12:52:11;8.80;;;5.97;;
23123;SDS011;11731;48.592;8.858;2023-08-21T12:54:38;7.07;;;6.13;;
23123;SDS011;11731;48.592;8.858;2023-08-21T12:57:05;7.10;;;5.40;;
23123;SDS011;11731;48.592;8.858;2023-08-21T12:59:34;8.32;;;5.13;;
23123;SDS011;11731;48.592;8.858;2023-08-21T13:02:01;6.18;;;5.53;;
23123;SDS011;11731;48.592;8.858;2023-08-21T13:04:30;5.97;;;5.32;;
23123;SDS011;11731;48.592;8.858;2023-08-21T13:06:57;8.05;;;5.55;;
23123;SDS011;11731;48.592;8.858;2023-08-21T13:09:23;7.13;;;5.45;;
23123;SDS011;11731;48.592;8.858;2023-08-21T13:11:51;6.85;;;6.10;;
23123;SDS011;11731;48.592;8.858;2023-08-21T13:14:18;8.95;;;5.88;;
23123;SDS011;11731;48.592;8.858;2023-08-21T13:16:45;6.20;;;5.60;;
23123;SDS011;11731;48.592;8.858;2023-08-21T13:19:11;7.05;;;5.18;;
23123;SDS011;11731;48.592;8.858;2023-08-21T13:21:40;6.25;;;5.10;;
23123;SDS011;11731;48.592;8.858;2023-08-21T13:24:06;10.32;;;6.15;;
23123;SDS011;11731;48.592;8.858;2023-08-21T13:26:33;9.23;;;5.60;;
23123;SDS011;11731;48.592;8.858;2023-08-21T13:29:00;7.47;;;5.82;;
23123;SDS011;11731;48.592;8.858;2023-08-21T13:31:27;8.70;;;5.85;;
23123;SDS011;11731;48.592;8.858;2023-08-21T13:33:54;6.63;;;5.80;;
23123;SDS011;11731;48.592;8.858;2023-08-21T13:36:21;7.13;;;5.55;;
23123;SDS011;11731;48.592;8.858;2023-08-21T13:38:49;9.57;;;6.00;;
23123;SDS011;11731;48.592;8.858;2023-08-21T13:41:16;7.68;;;6.05;;
23123;SDS011;11731;48.592;8.858;2023-08-21T13:43:43;6.85;;;5.45;;
23123;SDS011;11731;48.592;8.858;2023-08-21T13:46:10;6.93;;;5.53;;
23123;SDS011;11731;48.592;8.858;2023-08-21T13:48:37;7.15;;;5.72;;
23123;SDS011;11731;48.592;8.858;2023-08-21T13:51:04;7.15;;;5.60;;
23123;SDS011;11731;48.592;8.858;2023-08-21T13:53:31;10.35;;;5.28;;
23123;SDS011;11731;48.592;8.858;2023-08-21T13:55:59;10.88;;;5.43;;
23123;SDS011;11731;48.592;8.858;2023-08-21T13:58:26;8.45;;;5.25;;
23123;SDS011;11731;48.592;8.858;2023-08-21T14:00:52;7.60;;;5.65;;
23123;SDS011;11731;48.592;8.858;2023-08-21T14:03:20;6.43;;;5.18;;
23123;SDS011;11731;48.592;8.858;2023-08-21T14:05:47;12.65;;;5.88;;
23123;SDS011;11731;48.592;8.858;2023-08-21T14:08:14;10.40;;;5.20;;
23123;SDS011;11731;48.592;8.858;2023-08-21T14:10:41;6.50;;;5.07;;
23123;SDS011;11731;48.592;8.858;2023-08-21T14:13:09;8.23;;;5.20;;
23123;SDS011;11731;48.592;8.858;2023-08-21T14:15:37;7.80;;;5.57;;
23123;SDS011;11731;48.592;8.858;2023-08-21T14:18:07;6.90;;;5.07;;
23123;SDS011;11731;48.592;8.858;2023-08-21T14:20:34;11.00;;;5.72;;
23123;SDS011;11731;48.592;8.858;2023-08-21T14:23:00;10.38;;;4.80;;
23123;SDS011;11731;48.592;8.858;2023-08-21T14:25:27;9.20;;;6.13;;
23123;SDS011;11731;48.592;8.858;2023-08-21T14:27:54;8.93;;;5.28;;
23123;SDS011;11731;48.592;8.858;2023-08-21T14:30:23;7.20;;;5.40;;
23123;SDS011;11731;48.592;8.858;2023-08-21T14:32:49;7.25;;;5.72;;
23123;SDS011;11731;48.592;8.858;2023-08-21T14:35:16;8.25;;;5.43;;
23123;SDS011;11731;48.592;8.858;2023-08-21T14:37:43;6.75;;;5.55;;
23123;SDS011;11731;48.592;8.858;2023-08-21T14:40:10;8.45;;;5.18;;
23123;SDS011;11731;48.592;8.858;2023-08-21T14:42:37;6.13;;;5.45;;
23123;SDS011;11731;48.592;8.858;2023-08-21T14:45:11;7.35;;;5.45;;
23123;SDS011;11731;48.592;8.858;2023-08-21T14:47:40;8.43;;;5.47;;
23123;SDS011;11731;48.592;8.858;2023-08-21T14:50:07;7.43;;;5.93;;